createdAt,value
2023-03-22T19:24:41.320Z,0.0000
2023-03-22T19:25:33.580Z,0.0000
2023-03-22T19:26:34.646Z,0.0000
2023-03-22T19:27:36.403Z,0.0000
2023-03-22T19:29:47.696Z,23.7406
2023-03-22T19:30:39.187Z,50.3623
2023-03-22T19:31:40.274Z,68.3959
2023-03-22T19:32:48.039Z,89.3207
2023-03-22T19:34:43.606Z,129.5769
2023-03-22T19:35:44.767Z,149.4240
2023-03-22T19:36:45.846Z,168.8896
2023-03-22T19:37:46.959Z,188.1010
2023-03-22T19:41:20.341Z,21.4124
2023-03-22T19:41:42.875Z,20.9464
2023-03-22T19:42:17.257Z,21.2780
2023-03-22T19:43:17.380Z,21.6455
2023-03-22T19:44:18.476Z,22.2906
2023-03-22T19:45:19.581Z,22.5881
2023-03-22T19:46:20.792Z,22.3451
2023-03-22T19:47:22.292Z,22.1795
2023-03-22T19:48:22.931Z,22.1996
2023-03-22T19:49:24.016Z,22.2931
2023-03-22T19:50:25.132Z,22.2313
2023-03-22T19:51:26.307Z,22.1933
2023-03-22T19:52:27.348Z,22.1163
2023-03-22T19:54:08.362Z,22.0674
2023-03-22T19:54:39.757Z,22.0423
2023-03-22T19:55:31.670Z,22.0388
2023-03-22T19:57:18.450Z,23.8188
2023-03-22T19:58:09.605Z,22.5633
2023-03-22T19:59:11.926Z,22.1980
2023-03-22T20:00:44.530Z,22.1006
2023-03-22T20:01:13.973Z,22.0858
2023-03-22T20:02:14.067Z,22.0815
2023-03-22T20:03:15.223Z,21.9944
2023-03-22T20:04:16.295Z,21.8950
2023-03-22T20:14:02.119Z,23.5153
2023-03-22T20:14:53.778Z,22.4022
2023-03-22T20:15:54.872Z,22.0610
2023-03-22T20:25:11.643Z,23.9500
2023-03-22T20:25:11.643Z,22.4298
2023-03-22T20:27:12.379Z,23.7442
2023-03-22T20:28:04.726Z,22.1258
2023-03-22T20:33:52.477Z,20.6058
2023-03-22T20:34:44.800Z,20.1006
2023-03-22T20:35:45.910Z,18.8094
2023-03-22T20:36:47.032Z,17.3678
2023-03-22T20:37:48.140Z,17.1016
2023-03-22T20:38:49.269Z,17.9789
2023-03-22T20:39:50.434Z,18.8919
2023-03-22T20:40:51.496Z,19.5872
2023-03-22T20:41:53.407Z,20.1308
2023-03-22T20:44:22.080Z,22.6974
2023-03-22T20:45:13.059Z,21.6438
2023-03-22T20:46:14.178Z,21.3938
2023-03-22T20:47:15.251Z,21.3632
2023-03-22T20:48:16.372Z,21.3768
2023-03-22T20:49:17.501Z,21.3511
2023-03-22T20:50:18.697Z,21.3624
2023-03-22T20:51:19.726Z,21.3221
2023-03-22T20:52:21.534Z,21.2747
2023-03-22T20:53:21.938Z,21.3262
2023-03-22T20:54:23.111Z,21.4696
2023-03-22T20:55:24.220Z,21.6270
2023-03-22T20:56:25.291Z,21.7019
2023-03-22T20:57:26.398Z,21.5395
2023-03-22T20:58:27.522Z,21.4830
2023-03-22T20:59:28.635Z,21.5173
2023-03-22T21:00:29.811Z,21.4881
2023-03-22T21:01:30.866Z,21.3751
2023-03-22T21:02:31.994Z,21.3269
2023-03-22T21:03:33.099Z,21.3269
2023-03-22T21:05:19.738Z,23.3448
2023-03-22T21:06:11.721Z,22.1583
2023-03-22T21:07:12.818Z,21.8262
2023-03-22T21:08:14.994Z,21.6898
2023-03-22T21:09:15.039Z,21.6489
2023-03-22T21:10:16.153Z,21.6526
2023-03-22T21:11:17.307Z,21.6769
2023-03-22T21:12:18.366Z,21.6231
2023-03-22T21:14:45.783Z,23.3326
2023-03-22T21:15:37.782Z,22.0907
2023-03-22T21:16:38.959Z,21.7034
2023-03-22T21:17:40.025Z,21.8188
2023-03-22T21:18:41.142Z,21.7747
2023-03-22T21:19:42.242Z,21.7065
2023-03-22T21:22:57.423Z,23.3928
2023-03-22T21:23:48.200Z,22.2204
2023-03-22T21:25:57.908Z,23.4728
2023-03-22T21:26:49.456Z,22.2431
2023-03-22T21:27:51.848Z,21.8911
2023-03-22T21:30:06.850Z,23.5468
2023-03-22T21:30:58.340Z,22.1790
2023-03-22T21:31:59.444Z,20.0999
2023-03-22T21:33:00.573Z,18.4916
2023-03-22T21:34:01.662Z,17.5927
2023-03-22T21:35:02.796Z,17.2049
2023-03-22T21:36:03.974Z,16.7487
2023-03-22T21:37:05.016Z,16.6478
2023-03-22T21:38:06.117Z,16.4708
2023-03-22T22:07:03.288Z,20.5695
2023-03-22T22:07:55.922Z,20.4591
2023-03-22T22:10:31.956Z,22.2646
2023-03-22T22:11:24.368Z,21.1460
2023-03-22T22:15:31.556Z,21.4471
2023-03-22T22:16:23.730Z,20.7026
2023-03-22T22:23:22.344Z,21.7203
2023-03-22T22:25:14.881Z,22.6184
2023-03-22T22:26:06.320Z,21.5001
2023-03-22T22:27:07.456Z,21.1716
2023-03-22T22:28:08.545Z,21.1019
2023-03-22T22:29:09.711Z,21.1153
2023-03-22T22:30:10.765Z,21.0284
2023-03-22T22:31:11.885Z,21.0298
2023-03-22T22:32:12.984Z,21.0810
2023-03-22T22:33:14.117Z,21.1691
2023-03-22T22:34:15.279Z,21.1278
2023-03-22T22:35:16.345Z,21.0945
2023-03-22T22:36:17.424Z,21.1443
2023-03-22T22:37:18.537Z,21.1728
2023-03-22T22:38:19.625Z,21.2073
2023-03-22T22:39:20.798Z,21.2192
2023-03-22T22:40:21.830Z,21.2279
2023-03-22T22:41:22.958Z,21.2225
2023-03-22T22:42:24.039Z,21.2120
2023-03-22T22:43:25.165Z,21.1925
2023-03-22T22:44:26.365Z,21.1929
2023-03-22T22:45:27.405Z,21.1862
2023-03-22T22:46:28.457Z,21.1894
2023-03-22T22:47:29.607Z,21.1810
2023-03-22T22:48:30.652Z,21.1804
2023-03-22T22:49:31.855Z,21.1915
2023-03-22T22:50:32.862Z,21.1940
2023-03-22T22:51:33.987Z,21.1790
2023-03-22T22:52:35.073Z,21.1829
2023-03-22T22:53:36.193Z,21.1679
2023-03-22T22:54:37.391Z,21.1673
2023-03-22T22:55:38.406Z,21.1586
2023-03-22T22:56:39.468Z,21.1558
2023-03-22T22:57:40.588Z,21.1543
2023-03-22T22:58:41.666Z,21.1473
2023-03-22T22:59:42.851Z,21.1543
2023-03-22T23:00:43.869Z,21.1498
2023-03-22T23:01:44.982Z,21.1477
2023-03-22T23:02:46.090Z,21.1418
2023-03-22T23:03:47.204Z,21.1498
2023-03-22T23:04:48.323Z,21.1408
2023-03-22T23:05:49.413Z,21.1393
2023-03-22T23:06:50.493Z,21.1377
2023-03-22T23:07:51.607Z,21.1358
2023-03-22T23:08:52.695Z,21.0617
2023-03-22T23:09:53.884Z,20.9877
2023-03-22T23:10:54.905Z,20.9894
